createdAt,value
2023-03-30T00:01:17.772Z,15.70
2023-03-30T00:03:45.426Z,15.70
2023-03-30T00:06:14.706Z,15.60
2023-03-30T00:08:41.351Z,15.60
2023-03-30T00:11:11.839Z,15.60
2023-03-30T00:13:38.760Z,15.60
2023-03-30T00:16:06.945Z,15.50
2023-03-30T00:18:34.409Z,15.40
2023-03-30T00:21:02.803Z,15.40
2023-03-30T00:23:31.333Z,15.40
2023-03-30T00:25:58.392Z,15.40
2023-03-30T00:28:26.175Z,15.30
2023-03-30T00:30:53.662Z,15.30
2023-03-30T00:33:30.414Z,15.20
2023-03-30T00:36:04.584Z,15.10
2023-03-30T00:38:31.187Z,15.00
2023-03-30T00:40:59.505Z,15.00
2023-03-30T00:43:26.712Z,15.00
2023-03-30T00:45:53.460Z,15.00
2023-03-30T00:48:28.636Z,14.90
2023-03-30T00:50:57.079Z,14.90
2023-03-30T00:53:34.402Z,14.80
2023-03-30T00:56:04.714Z,14.80
2023-03-30T00:58:32.091Z,14.80
2023-03-30T01:01:00.180Z,14.80
2023-03-30T01:03:27.395Z,14.80
2023-03-30T01:05:55.281Z,14.90
2023-03-30T01:08:27.034Z,14.80
2023-03-30T01:10:53.891Z,14.80
2023-03-30T01:13:23.596Z,14.80
2023-03-30T01:16:09.633Z,14.70
2023-03-30T01:18:55.232Z,14.70
2023-03-30T01:21:49.146Z,14.70
2023-03-30T01:24:34.911Z,14.80
2023-03-30T01:27:21.966Z,14.90
2023-03-30T01:30:06.673Z,15.00
2023-03-30T01:32:33.321Z,15.10
2023-03-30T01:35:15.774Z,15.10
2023-03-30T01:38:10.363Z,15.20
2023-03-30T01:40:40.398Z,15.30
2023-03-30T01:43:16.176Z,15.40
2023-03-30T01:45:58.509Z,15.40
2023-03-30T01:48:33.573Z,15.40
2023-03-30T01:51:06.805Z,15.50
2023-03-30T01:53:37.246Z,15.50
2023-03-30T01:56:03.852Z,15.60
2023-03-30T01:58:59.911Z,15.60
2023-03-30T02:01:27.690Z,15.60
2023-03-30T02:03:56.474Z,15.70
2023-03-30T02:06:28.498Z,15.70
2023-03-30T02:08:56.735Z,15.70
2023-03-30T02:11:23.769Z,15.70
2023-03-30T02:13:51.407Z,15.80
2023-03-30T02:16:22.519Z,15.70
2023-03-30T02:19:13.246Z,15.70
2023-03-30T02:21:40.178Z,15.80
2023-03-30T02:24:23.288Z,15.90
2023-03-30T02:26:51.752Z,15.80
2023-03-30T02:29:32.184Z,15.90
2023-03-30T02:32:22.319Z,15.90
2023-03-30T02:35:06.475Z,15.90
2023-03-30T02:37:36.324Z,15.80
2023-03-30T02:40:23.468Z,15.70
2023-03-30T02:43:16.536Z,15.70
2023-03-30T02:45:49.184Z,15.60
2023-03-30T02:48:28.425Z,15.60
2023-03-30T02:51:06.537Z,15.50
2023-03-30T02:53:42.509Z,15.50
2023-03-30T02:56:12.632Z,15.30
2023-03-30T02:58:42.427Z,15.30
2023-03-30T03:01:15.704Z,15.30
2023-03-30T03:03:44.176Z,15.30
2023-03-30T03:06:14.600Z,15.30
2023-03-30T03:08:45.584Z,15.30
2023-03-30T03:11:12.334Z,15.30
2023-03-30T03:13:48.869Z,15.30
2023-03-30T03:16:19.065Z,15.20
2023-03-30T03:18:46.120Z,15.20
2023-03-30T03:21:14.055Z,15.10
2023-03-30T03:23:41.033Z,15.10
2023-03-30T03:26:07.940Z,15.10
2023-03-30T03:28:34.904Z,15.10
2023-03-30T03:31:02.524Z,15.00
2023-03-30T03:33:31.786Z,15.00
2023-03-30T03:36:00.423Z,15.00
2023-03-30T03:38:27.418Z,15.00
2023-03-30T03:40:54.849Z,14.90
2023-03-30T03:43:21.837Z,15.00
2023-03-30T03:45:49.330Z,15.00
2023-03-30T03:48:16.412Z,15.00
2023-03-30T03:50:43.124Z,14.90
2023-03-30T03:53:10.126Z,15.00
2023-03-30T03:55:36.725Z,14.90
2023-03-30T03:58:04.386Z,14.90
2023-03-30T04:00:31.435Z,14.90
2023-03-30T04:02:58.426Z,14.80
2023-03-30T04:05:25.734Z,14.80
2023-03-30T04:07:55.444Z,14.90
2023-03-30T04:10:22.162Z,14.90
2023-03-30T04:12:48.798Z,14.80
2023-03-30T04:15:15.858Z,14.80
2023-03-30T04:17:47.260Z,14.80
2023-03-30T04:20:14.181Z,14.80
2023-03-30T04:22:46.029Z,14.80
2023-03-30T04:25:14.513Z,14.70
2023-03-30T04:27:44.572Z,14.80
2023-03-30T04:30:13.831Z,14.80
2023-03-30T04:32:41.159Z,14.80
2023-03-30T04:35:08.498Z,14.70
2023-03-30T04:37:35.470Z,14.80
2023-03-30T04:40:06.948Z,14.80
2023-03-30T04:42:38.265Z,14.80
2023-03-30T04:45:05.890Z,14.90
2023-03-30T04:47:32.870Z,14.80
2023-03-30T04:49:59.950Z,14.90
2023-03-30T04:52:29.327Z,14.90
2023-03-30T04:54:55.865Z,14.90
2023-03-30T04:57:22.458Z,14.90
2023-03-30T04:59:48.999Z,15.00
2023-03-30T05:02:16.500Z,14.90
2023-03-30T05:04:43.169Z,14.90
2023-03-30T05:07:09.786Z,14.80
2023-03-30T05:09:36.376Z,14.80
2023-03-30T05:12:04.600Z,14.80
2023-03-30T05:14:31.186Z,14.80
2023-03-30T05:16:58.685Z,14.70
2023-03-30T05:19:25.417Z,14.70
2023-03-30T05:21:52.063Z,14.80
2023-03-30T05:24:18.698Z,14.80
2023-03-30T05:26:45.291Z,14.80
2023-03-30T05:29:11.899Z,14.80
2023-03-30T05:31:38.625Z,14.80
2023-03-30T05:34:05.216Z,14.80
2023-03-30T05:36:31.916Z,14.80
2023-03-30T05:38:58.596Z,14.80
2023-03-30T05:41:27.523Z,14.80
2023-03-30T05:43:54.223Z,14.80
2023-03-30T05:46:21.473Z,14.80
2023-03-30T05:48:48.041Z,14.80
2023-03-30T05:51:14.606Z,14.80
2023-03-30T05:53:41.442Z,14.80
2023-03-30T05:56:08.274Z,14.90
2023-03-30T05:58:34.855Z,14.80
2023-03-30T06:01:01.494Z,14.80
2023-03-30T06:03:28.238Z,14.80
2023-03-30T06:05:54.937Z,14.80
2023-03-30T06:08:22.774Z,14.80
2023-03-30T06:10:56.266Z,14.80
2023-03-30T06:13:23.275Z,14.80
2023-03-30T06:15:49.843Z,14.80
2023-03-30T06:18:16.680Z,14.80
2023-03-30T06:20:45.844Z,14.80
2023-03-30T06:23:12.364Z,14.80
2023-03-30T06:25:39.641Z,14.90
2023-03-30T06:28:06.356Z,14.90
2023-03-30T06:30:32.912Z,14.80
2023-03-30T06:33:00.038Z,14.80
2023-03-30T06:35:26.821Z,14.80
2023-03-30T06:37:53.565Z,14.80
2023-03-30T06:40:20.303Z,14.80
2023-03-30T06:42:47.605Z,14.80
2023-03-30T06:45:14.735Z,14.80
2023-03-30T06:47:41.544Z,14.90
2023-03-30T06:50:08.437Z,15.00
2023-03-30T06:52:35.990Z,15.00
2023-03-30T06:55:03.240Z,15.00
2023-03-30T06:57:29.910Z,15.10
2023-03-30T06:59:56.735Z,15.10
2023-03-30T07:02:23.459Z,15.10
2023-03-30T07:04:51.956Z,15.00
2023-03-30T07:07:18.529Z,14.90
2023-03-30T07:09:45.249Z,14.90
2023-03-30T07:12:11.872Z,14.90
2023-03-30T07:14:48.285Z,14.80
2023-03-30T07:17:16.523Z,14.90
2023-03-30T07:19:43.274Z,14.90
2023-03-30T07:22:10.038Z,14.90
2023-03-30T07:24:36.869Z,15.00
2023-03-30T07:27:03.579Z,15.10
2023-03-30T07:29:30.595Z,15.20
2023-03-30T07:31:57.402Z,15.20
2023-03-30T07:34:24.348Z,15.30
2023-03-30T07:36:51.163Z,15.30
2023-03-30T07:39:23.858Z,15.40
2023-03-30T07:41:50.803Z,15.50
2023-03-30T07:44:17.672Z,15.50
2023-03-30T07:46:44.615Z,15.60
2023-03-30T07:49:11.514Z,15.70
2023-03-30T07:51:38.382Z,15.60
2023-03-30T07:54:05.334Z,15.60
2023-03-30T07:56:33.565Z,15.70
2023-03-30T07:59:01.832Z,15.70
2023-03-30T08:01:28.848Z,15.70
2023-03-30T08:03:58.790Z,15.60
2023-03-30T08:06:25.639Z,15.80
2023-03-30T08:08:56.915Z,15.90
2023-03-30T08:11:23.656Z,16.00
2023-03-30T08:13:58.393Z,16.10
2023-03-30T08:16:25.201Z,16.10
2023-03-30T08:18:54.898Z,16.10
2023-03-30T08:21:23.603Z,16.30
2023-03-30T08:23:50.293Z,16.20
2023-03-30T08:26:16.856Z,16.30
2023-03-30T08:28:43.489Z,16.40
2023-03-30T08:31:12.971Z,16.40
2023-03-30T08:33:39.695Z,16.30
2023-03-30T08:36:06.332Z,16.30
2023-03-30T08:38:33.328Z,16.50
2023-03-30T08:40:59.870Z,16.30
2023-03-30T08:43:44.693Z,16.50
2023-03-30T08:46:12.951Z,16.60
2023-03-30T08:48:42.573Z,16.40
2023-03-30T08:51:18.543Z,16.40
2023-03-30T08:53:45.147Z,16.50
2023-03-30T08:56:21.701Z,16.30
2023-03-30T08:59:07.245Z,16.30
2023-03-30T09:01:42.804Z,16.20
2023-03-30T09:04:23.594Z,16.10
2023-03-30T09:06:52.297Z,16.30
2023-03-30T09:09:19.941Z,16.30
2023-03-30T09:11:49.477Z,16.50
2023-03-30T09:14:23.371Z,16.60
2023-03-30T09:16:57.354Z,16.50
2023-03-30T09:19:35.507Z,16.70
2023-03-30T09:22:05.755Z,16.60
2023-03-30T09:24:34.566Z,16.40
2023-03-30T09:27:04.248Z,16.60
2023-03-30T09:29:32.157Z,16.90
2023-03-30T09:32:13.972Z,17.20
2023-03-30T09:34:45.336Z,17.40
2023-03-30T09:37:12.889Z,18.50
2023-03-30T09:39:41.295Z,18.10
2023-03-30T09:42:11.549Z,17.70
2023-03-30T09:44:43.834Z,17.30
2023-03-30T09:47:26.866Z,17.50
2023-03-30T09:50:04.747Z,18.30
2023-03-30T09:52:37.131Z,18.40
2023-03-30T09:55:31.471Z,19.50
2023-03-30T09:58:18.731Z,19.80
2023-03-30T10:00:48.285Z,19.30
2023-03-30T10:03:26.811Z,18.10
2023-03-30T10:06:04.872Z,18.20
2023-03-30T10:08:32.037Z,15.70
2023-03-30T10:11:00.677Z,13.40
2023-03-30T10:13:31.226Z,11.50
2023-03-30T10:16:02.014Z,10.60
2023-03-30T10:18:30.496Z,10.40
2023-03-30T10:21:02.540Z,10.40
2023-03-30T10:23:34.401Z,10.40
2023-03-30T10:26:03.813Z,10.40
2023-03-30T10:28:33.897Z,10.40
2023-03-30T10:31:03.337Z,10.40
2023-03-30T10:33:31.128Z,10.40
2023-03-30T10:36:00.843Z,10.40
2023-03-30T10:38:32.429Z,10.40
2023-03-30T10:41:07.381Z,10.50
2023-03-30T10:43:38.308Z,10.50
2023-03-30T10:46:19.551Z,10.60
2023-03-30T10:49:04.170Z,10.60
2023-03-30T10:51:33.730Z,10.60
2023-03-30T10:54:18.003Z,11.50
2023-03-30T10:56:46.861Z,11.90
2023-03-30T10:59:22.538Z,12.00
2023-03-30T11:02:00.956Z,12.20
2023-03-30T11:04:27.706Z,12.30
2023-03-30T11:06:56.917Z,13.00
2023-03-30T11:09:27.784Z,14.30
2023-03-30T11:11:56.744Z,14.60
2023-03-30T11:14:25.508Z,15.20
2023-03-30T11:17:12.391Z,15.10
2023-03-30T11:19:48.358Z,16.10
2023-03-30T11:22:14.954Z,17.10
2023-03-30T11:24:43.020Z,17.00
2023-03-30T11:27:18.368Z,16.40
2023-03-30T11:29:56.992Z,15.70
2023-03-30T11:32:23.557Z,15.40
2023-03-30T11:35:09.320Z,14.90
2023-03-30T11:37:40.824Z,14.40
2023-03-30T11:40:29.222Z,14.20
2023-03-30T11:42:55.846Z,13.60
2023-03-30T11:45:41.116Z,13.00
2023-03-30T11:48:25.889Z,12.70
2023-03-30T11:51:01.929Z,12.70
2023-03-30T11:53:33.178Z,12.80
2023-03-30T11:55:59.689Z,12.90
2023-03-30T11:58:29.045Z,13.10
2023-03-30T12:01:02.800Z,13.20
2023-03-30T12:03:44.139Z,13.30
2023-03-30T12:06:19.856Z,13.50
2023-03-30T12:08:55.604Z,14.00
2023-03-30T12:11:34.506Z,14.80
2023-03-30T12:14:01.257Z,15.10
2023-03-30T12:16:41.136Z,15.50
2023-03-30T12:19:19.196Z,15.60
2023-03-30T12:21:52.280Z,15.00
2023-03-30T12:24:18.863Z,14.70
2023-03-30T12:26:58.175Z,14.70
2023-03-30T12:30:01.524Z,15.30
2023-03-30T12:32:30.436Z,15.90
2023-03-30T12:34:57.729Z,16.10
2023-03-30T12:37:36.233Z,16.20
2023-03-30T12:40:08.748Z,15.80
2023-03-30T12:42:38.132Z,15.90
2023-03-30T12:45:21.084Z,15.90
2023-03-30T12:47:54.047Z,16.50
2023-03-30T12:50:36.099Z,16.10
2023-03-30T12:53:11.644Z,16.20
2023-03-30T12:55:42.373Z,16.70
2023-03-30T12:58:27.587Z,16.90
2023-03-30T13:01:08.659Z,16.90
2023-03-30T13:04:01.478Z,17.30
2023-03-30T13:06:33.094Z,17.70
2023-03-30T13:09:15.014Z,17.30
2023-03-30T13:11:46.251Z,17.30
2023-03-30T13:14:15.994Z,17.50
2023-03-30T13:16:47.927Z,17.70
2023-03-30T13:21:47.901Z,18.10
2023-03-30T13:24:28.356Z,18.30
2023-03-30T13:27:09.956Z,18.00
2023-03-30T13:29:37.260Z,18.10
2023-03-30T13:32:17.685Z,17.40
2023-03-30T13:34:59.047Z,17.70
2023-03-30T13:37:33.117Z,17.70
2023-03-30T13:40:05.235Z,17.30
2023-03-30T13:42:34.897Z,16.80
2023-03-30T13:45:07.404Z,16.60
2023-03-30T13:47:34.114Z,16.40
2023-03-30T13:50:03.442Z,16.30
2023-03-30T13:52:32.758Z,16.30
2023-03-30T13:54:59.753Z,16.20
2023-03-30T13:57:31.266Z,16.10
2023-03-30T14:00:02.198Z,15.90
2023-03-30T14:02:30.719Z,16.00
2023-03-30T14:05:14.416Z,16.20
2023-03-30T14:07:43.549Z,15.90
2023-03-30T14:10:15.693Z,15.30
2023-03-30T14:12:42.849Z,15.80
2023-03-30T14:15:23.156Z,16.30
2023-03-30T14:17:51.440Z,16.10
2023-03-30T14:20:26.304Z,15.80
2023-03-30T14:22:54.672Z,16.20
2023-03-30T14:25:38.879Z,17.30
2023-03-30T14:28:16.219Z,17.70
2023-03-30T14:30:56.661Z,18.00
2023-03-30T14:33:23.883Z,18.20
2023-03-30T14:35:52.723Z,18.40
2023-03-30T14:38:24.347Z,19.40
2023-03-30T14:40:51.764Z,20.40
2023-03-30T14:43:24.630Z,20.70
2023-03-30T14:46:07.166Z,19.90
2023-03-30T14:48:37.668Z,19.60
2023-03-30T14:51:10.042Z,19.10
2023-03-30T14:53:36.991Z,19.20
2023-03-30T14:56:04.308Z,20.10
2023-03-30T14:58:32.016Z,18.90
2023-03-30T15:01:00.268Z,18.30
2023-03-30T15:03:34.036Z,17.60
2023-03-30T15:06:02.095Z,17.30
2023-03-30T15:08:31.338Z,16.90
2023-03-30T15:11:08.401Z,16.80
2023-03-30T15:13:37.948Z,16.50
2023-03-30T15:16:05.643Z,16.60
2023-03-30T15:18:32.935Z,16.90
2023-03-30T15:20:59.968Z,17.70
2023-03-30T15:23:31.293Z,19.00
2023-03-30T15:25:59.287Z,20.50
2023-03-30T15:28:29.981Z,21.20
2023-03-30T15:30:58.076Z,20.80
2023-03-30T15:33:41.145Z,19.90
2023-03-30T15:36:12.631Z,20.00
2023-03-30T15:38:44.314Z,20.90
2023-03-30T15:41:14.336Z,20.50
2023-03-30T15:43:57.480Z,20.20
2023-03-30T15:46:25.177Z,20.10
2023-03-30T15:48:53.312Z,21.10
2023-03-30T15:51:30.213Z,21.00
2023-03-30T15:53:59.228Z,20.70
2023-03-30T15:56:37.412Z,20.50
2023-03-30T15:59:06.599Z,20.30
2023-03-30T16:01:56.120Z,20.80
2023-03-30T16:04:34.618Z,20.40
2023-03-30T16:07:02.057Z,19.70
2023-03-30T16:09:28.800Z,19.10
2023-03-30T16:11:55.710Z,19.00
2023-03-30T16:14:22.463Z,19.10
2023-03-30T16:16:49.331Z,18.80
2023-03-30T16:19:17.997Z,18.10
2023-03-30T16:21:45.604Z,17.80
2023-03-30T16:24:12.746Z,17.10
2023-03-30T16:26:39.590Z,16.50
2023-03-30T16:29:10.908Z,16.50
2023-03-30T16:31:37.448Z,16.30
2023-03-30T16:34:04.148Z,16.20
2023-03-30T16:36:30.805Z,16.40
2023-03-30T16:38:57.430Z,17.50
2023-03-30T16:41:24.114Z,18.00
2023-03-30T16:43:50.867Z,18.10
2023-03-30T16:46:18.835Z,19.00
2023-03-30T16:48:46.369Z,18.50
2023-03-30T16:51:13.857Z,17.70
2023-03-30T16:53:41.372Z,17.90
2023-03-30T16:56:16.288Z,18.40
2023-03-30T16:58:42.944Z,18.20
2023-03-30T17:01:13.034Z,18.20
2023-03-30T17:03:39.772Z,18.50
2023-03-30T17:06:06.517Z,17.50
2023-03-30T17:08:33.536Z,18.00
2023-03-30T17:11:01.262Z,17.90
2023-03-30T17:13:28.605Z,17.90
2023-03-30T17:15:55.310Z,18.20
2023-03-30T17:18:22.911Z,17.50
2023-03-30T17:20:53.145Z,17.30
2023-03-30T17:23:22.014Z,17.70
2023-03-30T17:25:49.588Z,17.20
2023-03-30T17:28:39.280Z,17.00
2023-03-30T17:31:09.148Z,16.60
2023-03-30T17:33:37.206Z,16.20
2023-03-30T17:36:11.112Z,15.90
2023-03-30T17:38:37.862Z,15.60
2023-03-30T17:41:04.718Z,15.30
2023-03-30T17:43:31.466Z,15.10
2023-03-30T17:45:58.149Z,15.00
2023-03-30T17:48:25.147Z,14.90
2023-03-30T17:50:51.761Z,14.70
2023-03-30T17:53:19.037Z,14.60
2023-03-30T17:55:46.960Z,14.60
2023-03-30T17:58:18.710Z,14.50
2023-03-30T18:00:48.588Z,14.30
2023-03-30T18:03:16.199Z,14.20
2023-03-30T18:05:44.699Z,14.10
2023-03-30T18:08:17.384Z,14.10
2023-03-30T18:10:48.493Z,14.00
2023-03-30T18:13:16.158Z,14.00
2023-03-30T18:15:43.359Z,13.80
2023-03-30T18:18:10.697Z,13.80
2023-03-30T18:20:38.998Z,13.70
2023-03-30T18:23:05.918Z,13.70
2023-03-30T18:25:33.136Z,13.60
2023-03-30T18:28:00.663Z,13.60
2023-03-30T18:30:28.685Z,13.60
2023-03-30T18:32:55.935Z,13.60
2023-03-30T18:35:24.017Z,13.50
2023-03-30T18:37:51.332Z,13.50
2023-03-30T18:40:20.867Z,13.50
2023-03-30T18:42:47.430Z,13.40
2023-03-30T18:45:19.133Z,13.40
2023-03-30T18:47:45.942Z,13.40
2023-03-30T18:50:14.546Z,13.30
2023-03-30T18:52:41.225Z,13.30
2023-03-30T18:55:07.965Z,13.20
2023-03-30T18:57:34.488Z,13.20
2023-03-30T19:00:02.427Z,13.20
2023-03-30T19:02:29.081Z,13.20
2023-03-30T19:04:57.210Z,13.20
2023-03-30T19:07:24.638Z,13.20
2023-03-30T19:09:51.287Z,13.20
2023-03-30T19:12:17.854Z,13.10
2023-03-30T19:14:44.440Z,13.10
2023-03-30T19:17:10.984Z,13.00
2023-03-30T19:19:37.525Z,13.00
2023-03-30T19:22:04.070Z,13.00
2023-03-30T19:24:30.902Z,13.00
2023-03-30T19:26:57.525Z,13.00
2023-03-30T19:29:24.156Z,12.90
2023-03-30T19:31:52.663Z,12.90
2023-03-30T19:34:19.242Z,12.90
2023-03-30T19:36:45.737Z,12.90
2023-03-30T19:39:12.456Z,12.90
2023-03-30T19:41:39.042Z,12.80
2023-03-30T19:44:05.655Z,12.80
2023-03-30T19:46:32.329Z,12.80
2023-03-30T19:48:58.960Z,12.80
2023-03-30T19:51:25.618Z,12.80
2023-03-30T19:53:52.305Z,12.80
2023-03-30T19:56:18.827Z,12.80
2023-03-30T19:58:45.932Z,12.70
2023-03-30T20:01:12.469Z,12.70
2023-03-30T20:03:39.245Z,12.70
2023-03-30T20:06:08.737Z,12.60
2023-03-30T20:08:36.475Z,12.50
2023-03-30T20:11:10.194Z,12.40
2023-03-30T20:13:36.815Z,12.40
2023-03-30T20:16:03.957Z,12.30
2023-03-30T20:18:31.024Z,12.30
2023-03-30T20:20:57.988Z,12.30
2023-03-30T20:23:24.562Z,12.30
2023-03-30T20:25:54.145Z,12.30
2023-03-30T20:28:21.078Z,12.30
2023-03-30T20:30:47.689Z,12.30
2023-03-30T20:33:14.433Z,12.40
2023-03-30T20:35:41.740Z,12.40
2023-03-30T20:38:08.387Z,12.40
2023-03-30T20:40:35.392Z,12.40
2023-03-30T20:43:03.072Z,12.40
2023-03-30T20:45:30.488Z,12.40
2023-03-30T20:47:57.273Z,12.40
2023-03-30T20:50:23.904Z,12.40
2023-03-30T20:52:52.684Z,12.30
2023-03-30T20:55:19.256Z,12.30
2023-03-30T20:57:45.909Z,12.30
2023-03-30T21:00:12.767Z,12.30
2023-03-30T21:02:39.364Z,12.30
2023-03-30T21:05:06.494Z,12.30
2023-03-30T21:07:33.666Z,12.30
2023-03-30T21:10:00.257Z,12.30
2023-03-30T21:12:27.127Z,12.30
2023-03-30T21:14:53.614Z,12.20
2023-03-30T21:17:20.568Z,12.20
2023-03-30T21:19:47.096Z,12.20
2023-03-30T21:22:13.772Z,12.20
2023-03-30T21:24:40.295Z,12.30
2023-03-30T21:27:06.920Z,12.20
2023-03-30T21:29:33.522Z,12.20
2023-03-30T21:32:00.249Z,12.30
2023-03-30T21:34:26.844Z,12.30
2023-03-30T21:36:53.714Z,12.30
2023-03-30T21:39:20.466Z,12.30
2023-03-30T21:41:47.049Z,12.30
2023-03-30T21:44:13.642Z,12.30
2023-03-30T21:46:40.372Z,12.20
2023-03-30T21:49:07.056Z,12.20
2023-03-30T21:51:33.695Z,12.30
2023-03-30T21:54:00.532Z,12.30
2023-03-30T21:56:29.012Z,12.20
2023-03-30T21:58:55.981Z,12.30
2023-03-30T22:01:25.646Z,12.30
2023-03-30T22:03:53.135Z,12.30
2023-03-30T22:06:19.977Z,12.30
2023-03-30T22:08:46.607Z,12.30
2023-03-30T22:11:20.928Z,12.20
2023-03-30T22:13:48.872Z,12.20
2023-03-30T22:16:16.963Z,12.20
2023-03-30T22:18:44.145Z,12.20
2023-03-30T22:21:21.421Z,12.10
2023-03-30T22:23:48.038Z,12.10
2023-03-30T22:26:14.807Z,12.10
2023-03-30T22:28:41.523Z,12.00
2023-03-30T22:31:08.906Z,12.00
2023-03-30T22:33:35.808Z,12.00
2023-03-30T22:36:03.242Z,12.00
2023-03-30T22:38:30.130Z,11.90
2023-03-30T22:41:03.704Z,11.80
2023-03-30T22:43:32.670Z,11.90
2023-03-30T22:45:59.341Z,11.80
2023-03-30T22:48:25.868Z,11.80
2023-03-30T22:50:52.449Z,11.80
2023-03-30T22:53:19.113Z,11.80
2023-03-30T22:55:48.893Z,11.80
2023-03-30T22:58:15.636Z,11.80
2023-03-30T23:00:42.207Z,11.80
2023-03-30T23:03:08.974Z,11.80
2023-03-30T23:05:35.567Z,11.90
2023-03-30T23:08:02.145Z,11.90
2023-03-30T23:10:33.490Z,11.90
2023-03-30T23:13:01.907Z,11.90
2023-03-30T23:15:29.232Z,11.90
2023-03-30T23:17:55.915Z,12.00
2023-03-30T23:20:22.573Z,12.00
2023-03-30T23:22:49.498Z,12.00
2023-03-30T23:25:16.451Z,12.00
2023-03-30T23:27:43.076Z,12.00
2023-03-30T23:30:10.012Z,11.80
2023-03-30T23:32:36.562Z,11.80
2023-03-30T23:35:03.201Z,11.80
2023-03-30T23:37:32.346Z,11.90
2023-03-30T23:39:59.186Z,11.80
2023-03-30T23:42:25.782Z,11.80
2023-03-30T23:44:52.399Z,11.80
2023-03-30T23:47:19.108Z,11.90
2023-03-30T23:49:45.730Z,11.90
2023-03-30T23:52:12.199Z,11.80
2023-03-30T23:54:40.937Z,11.50
2023-03-30T23:57:07.842Z,11.30
2023-03-30T23:59:34.679Z,11.20
